Burrville, Tennessee
Current Conditions -  °F | °C
As of 2:53 AM on Monday 26 Jan 2015 (Local Time) from KCSV Reporting Station
Light Rain Light Rain  
Wind Chill: 32°   Ceiling: 800
Heat Index: 39°   Visibility: 8mi
Dew Point: 35°   Wind: 12mph
Humidity: 86%   Direction: 290°WNW
Pressure: 29.69"   Gusts: 18mph
Location:  36.273°N, 84.7037°W
Report Text: KCSV 260753Z AUTO 29010G16KT 8SM -RA OVC008 04/02 A2969 RMK AO2 CIG 005V013 SLP053 P0003 T00390017
Loading
Personal Weather Stations






























Interactive Weather Map New forecast layout! Learn more

10-Day Weather Forecast

Advertisements
Track Severe Weather on mobile